createdAt,value
2022-09-09T00:02:35.627Z,190.68
2022-09-09T00:05:33.510Z,197.48
2022-09-09T00:08:23.744Z,189.13
2022-09-09T00:11:14.725Z,199.60
2022-09-09T00:14:08.539Z,194.90
2022-09-09T00:17:02.965Z,186.27
2022-09-09T00:19:59.146Z,193.35
2022-09-09T00:22:54.326Z,190.00
2022-09-09T00:25:52.237Z,189.18
2022-09-09T00:28:47.759Z,207.95
2022-09-09T00:31:38.154Z,194.82
2022-09-09T00:34:29.266Z,195.20
2022-09-09T00:37:20.358Z,186.95
2022-09-09T00:40:23.852Z,186.05
2022-09-09T00:43:26.454Z,167.07
2022-09-09T00:46:48.256Z,177.07
2022-09-09T00:49:49.374Z,159.75
2022-09-09T00:52:48.754Z,159.65
2022-09-09T00:55:43.850Z,153.65
2022-09-09T00:58:31.813Z,162.07
2022-09-09T01:01:19.722Z,197.55
2022-09-09T01:04:12.764Z,169.80
2022-09-09T01:07:09.775Z,153.70
2022-09-09T01:10:00.692Z,149.02
2022-09-09T01:12:49.988Z,146.40
2022-09-09T01:15:43.969Z,151.75
2022-09-09T01:18:36.418Z,145.63
2022-09-09T01:21:38.526Z,164.50
2022-09-09T01:24:32.718Z,154.52
2022-09-09T01:27:38.173Z,175.32
2022-09-09T01:30:28.141Z,156.82
2022-09-09T01:33:19.528Z,149.95
2022-09-09T01:36:12.569Z,150.15
2022-09-09T01:39:07.750Z,146.25
2022-09-09T01:41:58.058Z,156.35
2022-09-09T01:44:47.288Z,145.88
2022-09-09T01:47:36.580Z,158.70
2022-09-09T01:50:39.296Z,167.75
2022-09-09T01:53:28.453Z,168.32
2022-09-09T01:56:28.791Z,166.32
2022-09-09T01:59:33.909Z,166.45
2022-09-09T02:02:28.711Z,167.57
2022-09-09T02:05:38.967Z,173.63
2022-09-09T02:08:41.193Z,175.60
2022-09-09T02:11:32.261Z,174.18
2022-09-09T02:14:41.373Z,172.23
2022-09-09T02:17:36.148Z,180.85
2022-09-09T02:20:35.206Z,179.10
2022-09-09T02:23:23.745Z,181.77
2022-09-09T02:26:21.131Z,174.13
2022-09-09T02:29:16.407Z,183.48
2022-09-09T02:32:10.369Z,181.15
2022-09-09T02:35:06.618Z,178.48
2022-09-09T02:38:00.212Z,186.77
2022-09-09T02:40:49.456Z,185.60
2022-09-09T02:43:38.083Z,201.23
2022-09-09T02:46:41.472Z,198.57
2022-09-09T02:49:37.634Z,194.25
2022-09-09T02:52:32.033Z,196.02
2022-09-09T02:55:25.468Z,201.70
2022-09-09T02:58:18.665Z,192.90
2022-09-09T03:01:15.146Z,199.90
2022-09-09T03:04:05.978Z,201.93
2022-09-09T03:06:54.230Z,204.32
2022-09-09T03:09:45.062Z,207.93
2022-09-09T03:12:34.631Z,195.45
2022-09-09T03:15:23.338Z,201.38
2022-09-09T03:18:11.339Z,194.73
2022-09-09T03:21:00.379Z,215.93
2022-09-09T03:23:48.777Z,206.13
2022-09-09T03:26:38.595Z,215.80
2022-09-09T03:29:29.314Z,214.52
2022-09-09T03:32:19.853Z,216.43
2022-09-09T03:35:08.958Z,223.93
2022-09-09T03:37:57.081Z,209.02
2022-09-09T03:40:51.185Z,213.20
2022-09-09T03:43:40.908Z,227.60
2022-09-09T03:46:28.936Z,228.65
2022-09-09T03:49:17.711Z,232.00
2022-09-09T03:52:06.196Z,230.93
2022-09-09T03:54:54.715Z,214.00
2022-09-09T03:57:42.977Z,222.50
2022-09-09T04:00:33.174Z,232.48
2022-09-09T04:03:24.651Z,223.85
2022-09-09T04:06:15.942Z,226.40
2022-09-09T04:09:06.829Z,231.80
2022-09-09T04:11:56.042Z,240.43
2022-09-09T04:14:43.931Z,235.88
2022-09-09T04:17:34.164Z,224.63
2022-09-09T04:20:22.987Z,234.38
2022-09-09T04:23:11.077Z,234.80
2022-09-09T04:26:02.316Z,220.65
2022-09-09T04:28:50.936Z,232.60
2022-09-09T04:31:43.055Z,216.60
2022-09-09T04:34:33.725Z,221.82
2022-09-09T04:37:21.693Z,218.20
2022-09-09T04:40:11.344Z,202.73
2022-09-09T04:43:00.027Z,213.68
2022-09-09T04:45:50.159Z,215.30
2022-09-09T04:48:38.411Z,222.25
2022-09-09T04:51:32.115Z,206.82
2022-09-09T04:54:20.307Z,225.32
2022-09-09T04:57:08.633Z,216.25
2022-09-09T04:59:57.272Z,232.20
2022-09-09T05:02:45.271Z,236.88
2022-09-09T05:05:35.608Z,232.48
2022-09-09T05:08:25.280Z,225.55
2022-09-09T05:11:18.040Z,217.50
2022-09-09T05:14:06.659Z,217.63
2022-09-09T05:16:54.631Z,231.52
2022-09-09T05:19:44.044Z,219.05
2022-09-09T05:22:32.261Z,233.38
2022-09-09T05:25:23.096Z,220.95
2022-09-09T05:28:12.528Z,223.50
2022-09-09T05:31:02.119Z,217.45
2022-09-09T05:33:52.040Z,212.75
2022-09-09T05:36:41.113Z,207.95
2022-09-09T05:39:29.740Z,210.98
2022-09-09T05:42:19.521Z,219.82
2022-09-09T05:45:09.564Z,210.40
2022-09-09T05:47:59.924Z,223.00
2022-09-09T05:50:55.194Z,210.95
2022-09-09T05:53:43.679Z,213.82
2022-09-09T05:56:33.349Z,219.43
2022-09-09T05:59:24.214Z,215.20
2022-09-09T06:02:14.506Z,213.90
2022-09-09T06:05:02.801Z,216.73
2022-09-09T06:07:54.209Z,212.38
2022-09-09T06:10:42.190Z,219.82
2022-09-09T06:13:30.204Z,212.20
2022-09-09T06:16:21.244Z,207.48
2022-09-09T06:19:09.765Z,208.82
2022-09-09T06:21:57.831Z,221.73
2022-09-09T06:24:45.743Z,208.18
2022-09-09T06:27:33.744Z,222.90
2022-09-09T06:30:21.654Z,216.52
2022-09-09T06:33:11.366Z,210.50
2022-09-09T06:35:59.619Z,211.60
2022-09-09T06:38:49.109Z,218.35
2022-09-09T06:41:37.992Z,225.30
2022-09-09T06:44:33.328Z,220.25
2022-09-09T06:47:23.813Z,213.43
2022-09-09T06:50:13.929Z,215.65
2022-09-09T06:53:03.157Z,188.95
2022-09-09T06:55:51.217Z,184.15
2022-09-09T06:58:44.903Z,196.77
2022-09-09T07:01:38.292Z,197.25
2022-09-09T07:04:30.509Z,196.95
2022-09-09T07:07:19.907Z,193.65
2022-09-09T07:10:08.485Z,188.15
2022-09-09T07:12:57.957Z,179.88
2022-09-09T07:15:47.227Z,185.95
2022-09-09T07:18:36.365Z,187.68
2022-09-09T07:21:25.402Z,183.95
2022-09-09T07:24:16.607Z,196.32
2022-09-09T07:27:06.614Z,183.07
2022-09-09T07:29:55.136Z,179.77
2022-09-09T07:32:43.392Z,146.70
2022-09-09T07:35:31.932Z,150.20
2022-09-09T07:38:20.489Z,157.75
2022-09-09T07:41:13.291Z,169.98
2022-09-09T07:44:07.486Z,160.40
2022-09-09T07:46:56.023Z,141.52
2022-09-09T07:49:50.663Z,142.13
2022-09-09T07:52:42.836Z,140.50
2022-09-09T07:55:31.242Z,142.93
2022-09-09T07:58:20.591Z,158.95
2022-09-09T08:01:10.936Z,152.85
2022-09-09T08:04:02.027Z,166.50
2022-09-09T08:06:53.765Z,159.23
2022-09-09T08:09:43.367Z,169.95
2022-09-09T08:12:37.904Z,154.65
2022-09-09T08:15:27.638Z,148.73
2022-09-09T08:18:15.804Z,139.55
2022-09-09T08:21:09.298Z,128.38
2022-09-09T08:23:58.866Z,121.68
2022-09-09T08:26:49.892Z,121.20
2022-09-09T08:29:40.293Z,117.10
2022-09-09T08:32:30.237Z,120.35
2022-09-09T08:35:18.454Z,132.50
2022-09-09T08:38:10.650Z,149.75
2022-09-09T08:41:17.263Z,166.05
2022-09-09T08:44:10.675Z,172.85
2022-09-09T08:47:07.324Z,188.68
2022-09-09T08:50:09.214Z,211.60
2022-09-09T08:53:03.138Z,207.95
2022-09-09T08:55:55.689Z,217.00
2022-09-09T08:58:51.789Z,213.48
2022-09-09T09:01:52.933Z,213.75
2022-09-09T09:05:13.476Z,191.07
2022-09-09T09:08:13.493Z,189.63
2022-09-09T09:11:02.557Z,175.23
2022-09-09T09:13:56.978Z,145.38
2022-09-09T09:16:54.768Z,150.48
2022-09-09T09:19:44.746Z,147.15
2022-09-09T09:22:46.067Z,145.20
2022-09-09T09:25:45.213Z,146.68
2022-09-09T09:28:34.625Z,149.55
2022-09-09T09:31:30.716Z,147.38
2022-09-09T09:34:19.131Z,144.50
2022-09-09T09:37:20.486Z,125.20
2022-09-09T09:40:14.513Z,109.60
2022-09-09T09:43:05.125Z,105.38
2022-09-09T09:46:13.947Z,101.55
2022-09-09T09:49:03.262Z,87.28
2022-09-09T09:51:53.494Z,86.07
2022-09-09T09:54:44.309Z,86.32
2022-09-09T09:57:35.147Z,89.85
2022-09-09T10:00:27.300Z,86.07
2022-09-09T10:03:27.755Z,93.60
2022-09-09T10:06:16.602Z,87.05
2022-09-09T10:09:08.635Z,90.00
2022-09-09T10:12:05.783Z,89.15
2022-09-09T10:15:02.535Z,98.30
2022-09-09T10:18:00.233Z,105.20
2022-09-09T10:20:54.998Z,124.03
2022-09-09T10:23:55.159Z,148.10
2022-09-09T10:26:51.781Z,168.35
2022-09-09T10:29:58.389Z,172.77
2022-09-09T10:32:53.032Z,166.95
2022-09-09T10:35:48.250Z,171.52
2022-09-09T10:38:42.020Z,177.55
2022-09-09T10:41:45.356Z,178.55
2022-09-09T10:44:53.264Z,146.52
2022-09-09T10:48:01.965Z,151.20
2022-09-09T10:51:04.366Z,136.68
2022-09-09T10:54:16.747Z,141.80
2022-09-09T10:57:12.994Z,134.45
2022-09-09T11:00:06.858Z,124.88
2022-09-09T11:02:58.806Z,130.23
2022-09-09T11:05:51.471Z,123.78
2022-09-09T11:08:41.234Z,117.28
2022-09-09T11:11:34.038Z,125.15
2022-09-09T11:14:28.758Z,103.80
2022-09-09T11:17:20.632Z,82.43
2022-09-09T11:20:14.225Z,80.15
2022-09-09T11:23:07.339Z,75.95
2022-09-09T11:25:59.525Z,72.30
2022-09-09T11:29:04.720Z,79.25
2022-09-09T11:32:06.310Z,72.90
2022-09-09T11:35:03.698Z,78.05
2022-09-09T11:38:07.628Z,70.97
2022-09-09T11:41:01.508Z,68.75
2022-09-09T11:43:52.883Z,59.60
2022-09-09T11:46:43.282Z,55.03
2022-09-09T11:49:42.758Z,61.30
2022-09-09T11:52:39.342Z,63.67
2022-09-09T11:55:32.546Z,67.43
2022-09-09T11:58:21.433Z,71.30
2022-09-09T12:01:17.715Z,75.03
2022-09-09T12:04:30.820Z,72.43
2022-09-09T12:07:31.959Z,65.68
2022-09-09T12:10:27.260Z,63.85
2022-09-09T12:13:21.608Z,76.28
2022-09-09T12:16:31.841Z,75.57
2022-09-09T12:19:26.302Z,73.93
2022-09-09T12:22:22.594Z,64.63
2022-09-09T12:25:23.308Z,65.15
2022-09-09T12:28:17.250Z,65.35
2022-09-09T12:31:14.165Z,66.28
2022-09-09T12:34:12.027Z,76.80
2022-09-09T12:37:06.824Z,74.28
2022-09-09T12:39:58.093Z,80.18
2022-09-09T12:42:45.988Z,82.50
2022-09-09T12:45:36.849Z,99.25
2022-09-09T12:48:32.676Z,93.65
2022-09-09T12:51:26.056Z,98.15
2022-09-09T12:54:16.113Z,97.10
2022-09-09T12:57:05.404Z,120.43
2022-09-09T12:59:54.191Z,141.77
2022-09-09T13:02:53.308Z,164.32
2022-09-09T13:05:42.550Z,225.88
2022-09-09T13:08:30.503Z,254.70
2022-09-09T13:11:23.429Z,246.35
2022-09-09T13:14:20.232Z,199.23
2022-09-09T13:17:19.454Z,192.05
2022-09-09T13:20:07.891Z,198.75
2022-09-09T13:22:58.826Z,211.30
2022-09-09T13:25:55.543Z,212.45
2022-09-09T13:28:43.790Z,226.10
2022-09-09T13:31:35.213Z,254.48
2022-09-09T13:34:32.365Z,259.65
2022-09-09T13:37:26.365Z,270.45
2022-09-09T13:40:22.052Z,267.08
2022-09-09T13:43:20.119Z,275.30
2022-09-09T13:46:26.935Z,299.10
2022-09-09T13:49:23.228Z,325.50
2022-09-09T13:52:14.517Z,337.98
2022-09-09T13:55:02.392Z,329.25
2022-09-09T13:57:56.307Z,312.85
2022-09-09T14:00:44.576Z,304.45
2022-09-09T14:03:32.478Z,299.65
2022-09-09T14:06:22.756Z,296.17
2022-09-09T14:09:15.655Z,282.83
2022-09-09T14:12:04.619Z,282.30
2022-09-09T14:14:53.867Z,271.38
2022-09-09T14:17:41.824Z,266.15
2022-09-09T14:20:29.767Z,250.02
2022-09-09T14:23:18.362Z,248.73
2022-09-09T14:26:06.999Z,252.82
2022-09-09T14:28:55.992Z,254.65
2022-09-09T14:31:45.572Z,223.00
2022-09-09T14:34:33.959Z,224.77
2022-09-09T14:37:22.503Z,233.88
2022-09-09T14:40:12.166Z,223.77
2022-09-09T14:43:00.136Z,229.35
2022-09-09T14:45:48.941Z,218.75
2022-09-09T14:48:40.676Z,205.27
2022-09-09T14:51:29.189Z,211.68
2022-09-09T14:54:17.183Z,210.05
2022-09-09T14:57:05.243Z,205.30
2022-09-09T14:59:53.098Z,208.00
2022-09-09T15:02:41.394Z,207.93
2022-09-09T15:05:32.714Z,202.45
2022-09-09T15:08:20.556Z,213.57
2022-09-09T15:11:09.105Z,217.85
2022-09-09T15:13:56.984Z,222.60
2022-09-09T15:16:44.869Z,224.75
2022-09-09T15:19:33.367Z,217.55
2022-09-09T15:22:22.703Z,218.77
2022-09-09T15:25:10.909Z,221.40
2022-09-09T15:27:59.260Z,234.23
2022-09-09T15:30:50.092Z,242.15
2022-09-09T15:33:38.713Z,242.18
2022-09-09T15:36:29.586Z,247.65
2022-09-09T15:39:19.963Z,244.80
2022-09-09T15:42:09.356Z,220.40
2022-09-09T15:44:57.962Z,236.27
2022-09-09T15:47:46.203Z,227.43
2022-09-09T15:50:34.067Z,228.07
2022-09-09T15:53:22.294Z,249.20
2022-09-09T15:56:11.516Z,262.20
2022-09-09T15:59:00.495Z,251.52
2022-09-09T16:01:48.397Z,254.90
2022-09-09T16:04:36.327Z,251.55
2022-09-09T16:07:24.212Z,263.67
2022-09-09T16:10:14.484Z,276.77
2022-09-09T16:13:03.720Z,258.23
2022-09-09T16:15:55.909Z,267.02
2022-09-09T16:18:46.541Z,264.05
2022-09-09T16:21:36.538Z,272.60
2022-09-09T16:24:24.876Z,267.13
2022-09-09T16:27:13.400Z,264.20
2022-09-09T16:30:02.627Z,269.25
2022-09-09T16:32:50.495Z,259.27
2022-09-09T16:35:39.671Z,275.65
2022-09-09T16:38:27.525Z,275.98
2022-09-09T16:41:16.389Z,282.52
2022-09-09T16:44:06.600Z,276.55
2022-09-09T16:47:00.474Z,269.08
2022-09-09T16:49:49.790Z,256.33
2022-09-09T16:52:37.628Z,245.57
2022-09-09T16:55:27.235Z,238.75
2022-09-09T16:58:15.422Z,243.85
2022-09-09T17:01:04.633Z,242.75
2022-09-09T17:04:00.662Z,240.75
2022-09-09T17:06:50.274Z,234.32
2022-09-09T17:09:38.138Z,243.68
2022-09-09T17:12:26.092Z,268.77
2022-09-09T17:15:14.020Z,251.02
2022-09-09T17:18:01.873Z,243.27
2022-09-09T17:20:51.082Z,270.75
2022-09-09T17:23:39.370Z,245.20
2022-09-09T17:26:29.219Z,257.17
2022-09-09T17:29:17.794Z,247.77
2022-09-09T17:32:07.993Z,257.98
2022-09-09T17:34:56.763Z,266.67
2022-09-09T17:37:46.096Z,276.88
2022-09-09T17:40:34.193Z,261.27
2022-09-09T17:43:22.587Z,249.90
2022-09-09T17:46:13.238Z,266.13
2022-09-09T17:49:03.127Z,252.60
2022-09-09T17:51:51.149Z,243.98
2022-09-09T17:54:42.469Z,244.73
2022-09-09T17:57:30.328Z,240.88
2022-09-09T18:00:18.559Z,259.02
2022-09-09T18:03:06.555Z,263.23
2022-09-09T18:05:54.618Z,257.63
2022-09-09T18:08:43.995Z,260.50
2022-09-09T18:11:35.283Z,273.17
2022-09-09T18:14:25.646Z,258.05
2022-09-09T18:17:13.560Z,256.92
2022-09-09T18:20:01.496Z,268.73
2022-09-09T18:22:49.359Z,267.02
2022-09-09T18:25:39.984Z,274.65
2022-09-09T18:28:29.293Z,281.75
2022-09-09T18:31:19.391Z,270.02
2022-09-09T18:34:09.869Z,274.95
2022-09-09T18:36:57.804Z,281.70
2022-09-09T18:39:45.745Z,285.92
2022-09-09T18:42:34.107Z,279.23
2022-09-09T18:45:23.525Z,279.73
2022-09-09T18:48:11.400Z,277.23
2022-09-09T18:51:03.107Z,265.58
2022-09-09T18:53:51.521Z,277.70
2022-09-09T18:56:40.011Z,278.00
2022-09-09T18:59:28.139Z,276.42
2022-09-09T19:02:17.332Z,268.42
2022-09-09T19:05:06.656Z,292.52
2022-09-09T19:07:54.512Z,280.38
2022-09-09T19:10:42.429Z,266.55
2022-09-09T19:13:31.672Z,277.40
2022-09-09T19:16:20.300Z,273.40
2022-09-09T19:19:13.430Z,260.70
2022-09-09T19:22:01.889Z,262.20
2022-09-09T19:24:51.295Z,270.27
2022-09-09T19:27:39.153Z,279.92
2022-09-09T19:30:27.105Z,290.98
2022-09-09T19:33:15.235Z,263.52
2022-09-09T19:36:06.975Z,285.10
2022-09-09T19:38:55.755Z,281.05
2022-09-09T19:41:44.034Z,270.67
2022-09-09T19:44:31.981Z,284.80
2022-09-09T19:47:20.423Z,281.85
2022-09-09T19:50:08.999Z,270.00
2022-09-09T19:53:00.206Z,266.77
2022-09-09T19:55:51.753Z,283.77
2022-09-09T19:58:40.998Z,273.13
2022-09-09T20:01:30.648Z,289.70
2022-09-09T20:04:18.619Z,276.52
2022-09-09T20:07:06.522Z,287.77
2022-09-09T20:09:55.760Z,268.95
2022-09-09T20:12:43.682Z,272.63
2022-09-09T20:15:31.683Z,266.17
2022-09-09T20:18:19.703Z,289.08
2022-09-09T20:21:10.456Z,278.63
2022-09-09T20:24:00.918Z,280.42
2022-09-09T20:26:50.609Z,273.05
2022-09-09T20:29:39.236Z,292.17
2022-09-09T20:32:27.731Z,277.20
2022-09-09T20:35:16.609Z,272.02
2022-09-09T20:38:04.459Z,269.15
2022-09-09T20:40:52.353Z,267.40
2022-09-09T20:43:46.570Z,286.40
2022-09-09T20:46:37.609Z,264.30
2022-09-09T20:49:25.809Z,280.70
2022-09-09T20:52:15.122Z,272.13
2022-09-09T20:55:02.958Z,280.98
2022-09-09T20:57:51.723Z,272.25
2022-09-09T21:00:40.998Z,266.70
2022-09-09T21:03:29.898Z,263.30
2022-09-09T21:06:18.040Z,269.77
2022-09-09T21:09:06.593Z,267.13
2022-09-09T21:11:54.474Z,268.63
2022-09-09T21:14:42.364Z,271.00
2022-09-09T21:17:31.650Z,266.73
2022-09-09T21:20:19.791Z,267.58
2022-09-09T21:23:07.670Z,279.98
2022-09-09T21:25:56.428Z,268.85
2022-09-09T21:28:44.432Z,266.50
2022-09-09T21:31:32.426Z,268.67
2022-09-09T21:34:21.792Z,285.48
2022-09-09T21:37:10.078Z,264.40
2022-09-09T21:39:58.008Z,274.40
2022-09-09T21:42:46.349Z,263.83
2022-09-09T21:45:36.060Z,275.48
2022-09-09T21:48:26.013Z,276.20
2022-09-09T21:51:18.160Z,266.25
2022-09-09T21:54:06.790Z,269.50
2022-09-09T21:56:54.701Z,263.45
2022-09-09T21:59:42.606Z,284.83
2022-09-09T22:02:30.528Z,287.08
2022-09-09T22:05:19.103Z,261.63
2022-09-09T22:08:08.490Z,261.58
2022-09-09T22:10:56.341Z,267.38
2022-09-09T22:13:45.844Z,266.80
2022-09-09T22:16:33.834Z,278.05
2022-09-09T22:19:21.931Z,270.02
2022-09-09T22:22:09.832Z,257.35
2022-09-09T22:24:59.062Z,268.58
2022-09-09T22:27:46.928Z,262.60
2022-09-09T22:30:35.314Z,263.60
2022-09-09T22:33:24.147Z,278.20
2022-09-09T22:36:12.596Z,274.73
2022-09-09T22:39:01.086Z,258.85
2022-09-09T22:41:50.338Z,269.35
2022-09-09T22:44:38.509Z,263.45
2022-09-09T22:47:26.428Z,264.55
2022-09-09T22:50:14.295Z,244.73
2022-09-09T22:53:02.189Z,250.93
2022-09-09T22:55:58.470Z,251.55
2022-09-09T22:58:48.706Z,231.90
2022-09-09T23:01:37.031Z,241.77
2022-09-09T23:04:25.488Z,249.88
2022-09-09T23:07:13.390Z,237.95
2022-09-09T23:10:01.266Z,236.20
2022-09-09T23:12:49.607Z,231.80
2022-09-09T23:15:38.911Z,250.43
2022-09-09T23:18:26.844Z,231.55
2022-09-09T23:21:16.228Z,247.15
2022-09-09T23:24:05.687Z,239.25
2022-09-09T23:26:53.625Z,239.85
2022-09-09T23:29:41.515Z,238.23
2022-09-09T23:32:31.742Z,233.25
2022-09-09T23:35:19.611Z,248.57
2022-09-09T23:38:07.469Z,243.23
2022-09-09T23:40:55.930Z,252.43
2022-09-09T23:43:44.980Z,255.13
2022-09-09T23:46:34.918Z,247.23
2022-09-09T23:49:26.754Z,243.02
2022-09-09T23:52:15.104Z,243.70
2022-09-09T23:55:03.070Z,239.43
2022-09-09T23:57:51.788Z,243.05
